Time;durP1;ratioP1;P1;durP2;ratioP2;P2;SDS_P1;SDS_P2;PMS_P1;PMS_P2;Temp;Humidity;BMP_temperature;BMP_pressure;BME280_temperature;BME280_humidity;BME280_pressure;Samples;Min_cycle;Max_cycle;Signal;HPM_P1;HPM_P2
2021/08/06 00:00:13;;;;;;;1.73;0.90;;;17.60;99.90;;;;;;4989957;28;20054;-85
2021/08/06 00:02:41;;;;;;;1.83;0.90;;;17.60;99.90;;;;;;4990267;28;20040;-84
2021/08/06 00:05:07;;;;;;;1.95;0.80;;;17.60;99.90;;;;;;4989913;28;20030;-85
2021/08/06 00:07:33;;;;;;;1.80;0.88;;;17.60;99.90;;;;;;4973570;28;20031;-84
2021/08/06 00:09:59;;;;;;;1.85;0.90;;;17.60;99.90;;;;;;4989821;28;20061;-85
2021/08/06 00:12:25;;;;;;;1.42;0.80;;;17.60;99.90;;;;;;4973712;28;20030;-85
2021/08/06 00:14:51;;;;;;;1.88;0.68;;;17.60;99.90;;;;;;4989605;28;20038;-84
2021/08/06 00:17:17;;;;;;;1.60;1.00;;;17.60;99.90;;;;;;4974243;28;20042;-85
2021/08/06 00:19:43;;;;;;;1.45;0.60;;;17.60;99.90;;;;;;4970235;28;20058;-85
2021/08/06 00:22:08;;;;;;;2.03;0.77;;;17.50;99.90;;;;;;4970382;28;20074;-84
2021/08/06 00:24:34;;;;;;;1.90;0.52;;;17.60;99.90;;;;;;4970069;28;20035;-85
2021/08/06 00:26:59;;;;;;;2.88;1.00;;;17.60;99.90;;;;;;4970329;28;20046;-85
2021/08/06 00:29:25;;;;;;;1.67;0.70;;;17.60;99.90;;;;;;4969907;28;20037;-85
2021/08/06 00:31:52;;;;;;;1.45;0.52;;;17.60;99.90;;;;;;4970095;28;20117;-84
2021/08/06 00:34:18;;;;;;;1.80;0.50;;;17.50;99.90;;;;;;4968227;28;20030;-84
2021/08/06 00:36:48;;;;;;;2.53;0.70;;;17.60;99.90;;;;;;4989242;28;20106;-84
2021/08/06 00:39:14;;;;;;;1.88;0.60;;;17.60;99.90;;;;;;4989188;28;20034;-84
2021/08/06 00:41:39;;;;;;;2.13;0.80;;;17.50;99.90;;;;;;4989291;28;20046;-84
2021/08/06 00:44:05;;;;;;;1.63;0.50;;;17.50;99.90;;;;;;4989071;28;20026;-85
2021/08/06 00:47:12;;;;;;;1.63;0.60;;;17.50;99.90;;;;;;4989068;28;20053;-84
2021/08/06 00:49:41;;;;;;;1.27;0.50;;;17.50;99.90;;;;;;4884366;29;20053;-85
2021/08/06 00:52:10;;;;;;;1.92;0.57;;;17.50;99.90;;;;;;4889808;29;20037;-83
2021/08/06 00:54:39;;;;;;;1.83;0.40;;;17.50;99.90;;;;;;4889288;29;20041;-84
2021/08/06 00:57:13;;;;;;;1.75;0.70;;;17.50;99.90;;;;;;4889534;29;20065;-85
2021/08/06 00:59:40;;;;;;;1.33;0.80;;;17.50;99.90;;;;;;4888745;29;20394;-85
2021/08/06 01:02:19;;;;;;;1.67;0.80;;;17.50;99.90;;;;;;4889454;29;20510;-84
2021/08/06 01:04:51;;;;;;;3.30;0.63;;;17.50;99.90;;;;;;4889174;29;20033;-83
2021/08/06 01:07:29;;;;;;;2.97;0.70;;;17.50;99.90;;;;;;4889278;29;20041;-84
2021/08/06 01:10:02;;;;;;;;;;;17.40;99.90;;;;;;4889665;29;20075;-84
2021/08/06 01:13:00;;;;;;;1.48;0.60;;;17.40;99.90;;;;;;4889197;29;19918;-84
2021/08/06 01:15:53;;;;;;;1.33;0.60;;;17.40;99.90;;;;;;4889757;29;20040;-84
2021/08/06 01:18:20;;;;;;;1.50;0.60;;;17.40;99.90;;;;;;4852177;29;20085;-84
2021/08/06 01:20:54;;;;;;;1.52;0.65;;;17.40;99.90;;;;;;4852052;29;20038;-83
2021/08/06 01:23:36;;;;;;;1.48;0.50;;;17.40;99.90;;;;;;4852214;29;20048;-84
2021/08/06 01:26:14;;;;;;;1.30;0.55;;;17.40;99.90;;;;;;4847972;29;20047;-84
2021/08/06 01:28:58;;;;;;;1.10;0.50;;;17.40;99.90;;;;;;4908021;29;20089;-84
2021/08/06 01:31:28;;;;;;;0.95;0.45;;;17.40;99.90;;;;;;4907768;29;20029;-83
2021/08/06 01:34:08;;;;;;;1.30;0.60;;;17.40;99.90;;;;;;4908029;29;20044;-84
2021/08/06 01:36:34;;;;;;;1.58;0.50;;;17.40;99.90;;;;;;4907640;29;20045;-83
2021/08/06 01:39:03;;;;;;;1.20;0.50;;;17.40;99.90;;;;;;4907913;29;20024;-83
2021/08/06 01:42:14;;;;;;;1.30;0.50;;;17.40;99.90;;;;;;4907678;29;20041;-84
2021/08/06 01:44:52;;;;;;;1.35;0.50;;;17.40;99.90;;;;;;4907789;29;20124;-84
2021/08/06 01:47:52;;;;;;;1.73;0.68;;;17.40;99.90;;;;;;4892003;29;20043;-83
2021/08/06 01:50:26;;;;;;;2.05;0.60;;;17.50;99.90;;;;;;4873724;29;20052;-84
2021/08/06 01:53:00;;;;;;;1.30;0.60;;;17.40;99.90;;;;;;4904326;29;20582;-84
2021/08/06 01:55:39;;;;;;;1.60;0.60;;;17.40;99.90;;;;;;4946541;28;20061;-85
2021/08/06 01:58:07;;;;;;;1.50;0.60;;;17.50;99.90;;;;;;4988443;28;20046;-84
2021/08/06 02:00:40;;;;;;;1.83;0.65;;;17.50;99.90;;;;;;5020210;28;20042;-84
2021/08/06 02:03:09;;;;;;;2.08;0.60;;;17.50;99.90;;;;;;4988731;28;20030;-86
2021/08/06 02:05:36;;;;;;;1.20;0.55;;;17.40;99.90;;;;;;5004310;28;20471;-84
2021/08/06 02:08:10;;;;;;;2.20;0.50;;;17.50;99.90;;;;;;4988042;28;20041;-83
2021/08/06 02:10:41;;;;;;;1.50;0.40;;;17.50;99.90;;;;;;5006775;28;20352;-84
2021/08/06 02:13:07;;;;;;;1.13;0.50;;;17.50;99.90;;;;;;5008121;28;20254;-85
2021/08/06 02:15:34;;;;;;;2.20;0.60;;;17.50;99.90;;;;;;5009457;28;20366;-85
2021/08/06 02:18:01;;;;;;;1.20;0.43;;;17.50;99.90;;;;;;4994936;28;20040;-85
2021/08/06 02:20:42;;;;;;;1.35;0.50;;;17.50;99.90;;;;;;4997009;28;20056;-85
2021/08/06 02:23:11;;;;;;;1.40;0.60;;;17.50;99.90;;;;;;5011095;28;20030;-84
2021/08/06 02:25:38;;;;;;;1.50;0.50;;;17.50;99.90;;;;;;4995003;28;20097;-85
2021/08/06 02:28:05;;;;;;;2.90;0.60;;;17.50;99.90;;;;;;4994903;28;20102;-85
2021/08/06 02:30:37;;;;;;;1.60;0.50;;;17.50;99.90;;;;;;4995565;28;20033;-83
2021/08/06 02:33:03;;;;;;;1.42;0.50;;;17.50;99.90;;;;;;5010729;28;20061;-83
2021/08/06 02:35:29;;;;;;;1.48;0.60;;;17.40;99.90;;;;;;5010987;28;20094;-83
2021/08/06 02:37:55;;;;;;;1.55;0.47;;;17.40;99.90;;;;;;5010908;28;20045;-84
2021/08/06 02:40:21;;;;;;;1.15;0.50;;;17.30;99.90;;;;;;5027251;28;20057;-83
2021/08/06 02:42:48;;;;;;;1.08;0.47;;;17.30;99.90;;;;;;4994534;28;20033;-83
2021/08/06 02:45:16;;;;;;;1.20;0.43;;;17.20;99.90;;;;;;4994700;28;20126;-84
2021/08/06 02:47:42;;;;;;;1.30;0.50;;;17.20;99.90;;;;;;4994190;28;20477;-84
2021/08/06 02:50:09;;;;;;;2.05;0.70;;;17.30;99.90;;;;;;4971997;28;20070;-83
2021/08/06 02:52:35;;;;;;;2.92;0.50;;;17.30;99.90;;;;;;4987972;28;20042;-84
2021/08/06 02:55:01;;;;;;;2.97;0.57;;;17.30;99.90;;;;;;4987949;28;20023;-84
2021/08/06 02:57:27;;;;;;;1.40;0.50;;;17.30;99.90;;;;;;4987672;28;20050;-84
2021/08/06 02:59:52;;;;;;;1.17;0.60;;;17.30;99.90;;;;;;4988074;28;20019;-84
2021/08/06 03:02:20;;;;;;;1.27;0.60;;;17.30;99.90;;;;;;4988101;28;20042;-84
2021/08/06 03:04:46;;;;;;;1.23;0.60;;;17.30;99.90;;;;;;4987886;28;20034;-85
2021/08/06 03:07:14;;;;;;;1.10;0.50;;;17.30;99.90;;;;;;4987796;28;20030;-84
2021/08/06 03:09:40;;;;;;;1.73;0.50;;;17.30;99.90;;;;;;4987783;28;20043;-84
2021/08/06 03:12:06;;;;;;;2.85;0.55;;;17.30;99.90;;;;;;4987611;28;20031;-85
2021/08/06 03:14:36;;;;;;;1.48;0.55;;;17.30;99.90;;;;;;4987705;28;20402;-84
2021/08/06 03:17:03;;;;;;;1.30;0.60;;;17.30;99.90;;;;;;5003832;28;20049;-85
2021/08/06 03:19:30;;;;;;;1.70;0.70;;;17.30;99.90;;;;;;4994560;28;20029;-86
2021/08/06 03:21:57;;;;;;;1.20;0.50;;;17.30;99.90;;;;;;4993925;28;20030;-86
2021/08/06 03:24:23;;;;;;;1.45;0.50;;;17.40;99.90;;;;;;4994136;28;20036;-85
2021/08/06 03:26:49;;;;;;;1.05;0.40;;;17.40;99.90;;;;;;4994033;28;20097;-85
2021/08/06 03:29:17;;;;;;;1.38;0.50;;;17.40;99.90;;;;;;5010251;28;20026;-85
2021/08/06 03:31:42;;;;;;;1.38;0.57;;;17.40;99.90;;;;;;4994016;28;20033;-86
2021/08/06 03:34:08;;;;;;;1.50;0.50;;;17.40;99.90;;;;;;4994030;28;20390;-85
2021/08/06 03:36:34;;;;;;;2.10;0.40;;;17.40;99.90;;;;;;5010237;28;20124;-86
2021/08/06 03:39:00;;;;;;;2.20;0.60;;;17.50;99.90;;;;;;5010217;28;20034;-85
2021/08/06 03:41:26;;;;;;;1.30;0.50;;;17.40;99.90;;;;;;4994105;28;20029;-85
2021/08/06 03:43:56;;;;;;;1.40;0.47;;;17.40;99.90;;;;;;5009764;28;20482;-86
2021/08/06 03:46:22;;;;;;;1.00;0.50;;;17.50;99.90;;;;;;4993806;28;20038;-88
2021/08/06 03:48:48;;;;;;;1.38;0.50;;;17.50;99.90;;;;;;4981643;28;20483;-87
2021/08/06 03:51:15;;;;;;;1.50;0.50;;;17.50;99.90;;;;;;4987205;28;20035;-87
2021/08/06 03:53:40;;;;;;;1.80;0.40;;;17.50;99.90;;;;;;4986943;28;20095;-87
2021/08/06 03:56:06;;;;;;;1.15;0.50;;;17.50;99.90;;;;;;4987135;28;20066;-86
2021/08/06 03:58:33;;;;;;;1.70;0.60;;;17.50;99.90;;;;;;4986671;28;20023;-86
2021/08/06 04:00:59;;;;;;;1.65;0.50;;;17.40;99.90;;;;;;4987018;28;20538;-87
2021/08/06 04:03:25;;;;;;;2.63;0.50;;;17.40;99.90;;;;;;4970591;28;20037;-87
2021/08/06 04:05:51;;;;;;;1.02;0.40;;;17.40;99.90;;;;;;4986732;28;20037;-86
2021/08/06 04:08:19;;;;;;;1.30;0.47;;;17.40;99.90;;;;;;4986409;28;20031;-86
2021/08/06 04:10:50;;;;;;;1.27;0.50;;;17.30;99.90;;;;;;4986769;28;20039;-85
2021/08/06 04:13:16;;;;;;;0.95;0.40;;;17.30;99.90;;;;;;4986532;28;20099;-86
2021/08/06 04:15:42;;;;;;;1.73;0.40;;;17.30;99.90;;;;;;4988832;28;20035;-84
2021/08/06 04:18:08;;;;;;;1.58;0.50;;;17.30;99.90;;;;;;4989565;28;20057;-86
2021/08/06 04:20:33;;;;;;;1.25;0.40;;;17.30;99.90;;;;;;4973671;28;20054;-86
2021/08/06 04:22:59;;;;;;;1.60;0.40;;;17.30;99.90;;;;;;4973642;28;20037;-87
2021/08/06 04:25:26;;;;;;;1.48;0.40;;;17.30;99.90;;;;;;4989659;28;20509;-86
2021/08/06 04:27:52;;;;;;;1.45;0.50;;;17.30;99.90;;;;;;4973269;28;20049;-83
2021/08/06 04:30:17;;;;;;;0.93;0.38;;;17.30;99.90;;;;;;4973583;28;20030;-85
2021/08/06 04:32:44;;;;;;;1.92;0.40;;;17.20;99.90;;;;;;4981497;28;20478;-87
2021/08/06 04:35:11;;;;;;;2.13;0.47;;;17.20;99.90;;;;;;4991942;28;20034;-85
2021/08/06 04:37:51;;;;;;;1.15;0.40;;;17.20;99.90;;;;;;5024808;28;20048;-84
2021/08/06 04:40:19;;;;;;;2.35;0.60;;;17.20;99.90;;;;;;5008123;28;20022;-85
2021/08/06 04:42:45;;;;;;;1.55;0.40;;;17.20;99.90;;;;;;4991909;28;20595;-84
2021/08/06 04:45:11;;;;;;;2.10;0.60;;;17.10;99.90;;;;;;4991457;28;20030;-85
2021/08/06 04:47:45;;;;;;;1.38;0.45;;;17.10;99.90;;;;;;5007805;28;20462;-84
2021/08/06 04:50:12;;;;;;;1.23;0.43;;;17.10;99.90;;;;;;4962830;28;20058;-84
2021/08/06 04:52:38;;;;;;;1.63;0.57;;;17.10;99.90;;;;;;4988551;28;20033;-85
2021/08/06 04:55:04;;;;;;;1.63;0.60;;;17.20;99.90;;;;;;4985783;28;20031;-85
2021/08/06 04:57:30;;;;;;;1.30;0.55;;;17.10;99.90;;;;;;4988202;28;20056;-84
2021/08/06 04:59:56;;;;;;;1.20;0.60;;;17.10;99.90;;;;;;5004381;28;20026;-87
2021/08/06 05:02:21;;;;;;;1.67;0.60;;;17.10;99.90;;;;;;4988591;28;20053;-85
2021/08/06 05:04:47;;;;;;;1.20;0.50;;;17.20;99.90;;;;;;4988492;28;20504;-85
2021/08/06 05:07:17;;;;;;;1.42;0.60;;;17.20;99.90;;;;;;4972578;28;20054;-83
2021/08/06 05:09:47;;;;;;;1.40;0.50;;;17.20;99.90;;;;;;4987941;28;20099;-84
2021/08/06 05:12:13;;;;;;;1.40;0.60;;;17.20;99.90;;;;;;4987988;28;20065;-84
2021/08/06 05:14:40;;;;;;;1.55;0.60;;;17.20;99.90;;;;;;4987908;28;20034;-84
2021/08/06 05:17:07;;;;;;;1.42;0.60;;;17.10;99.90;;;;;;4987913;28;20050;-83
2021/08/06 05:19:32;;;;;;;1.30;0.60;;;17.20;99.90;;;;;;4987457;28;20034;-85
2021/08/06 05:21:58;;;;;;;1.40;0.70;;;17.20;99.90;;;;;;5004326;28;20093;-84
2021/08/06 05:24:25;;;;;;;1.38;0.70;;;17.10;99.90;;;;;;4987746;28;20036;-86
2021/08/06 05:26:51;;;;;;;1.40;0.60;;;17.20;99.90;;;;;;5004271;28;20030;-82
2021/08/06 05:29:16;;;;;;;1.20;0.50;;;17.20;99.90;;;;;;4987764;28;20050;-84
2021/08/06 05:31:42;;;;;;;1.98;0.63;;;17.20;99.90;;;;;;4987957;28;20038;-85
2021/08/06 05:34:08;;;;;;;1.45;0.47;;;17.20;99.90;;;;;;4988000;28;20037;-85
2021/08/06 05:36:34;;;;;;;1.13;0.50;;;17.20;99.90;;;;;;4988200;28;20038;-86
2021/08/06 05:39:00;;;;;;;1.88;0.52;;;17.30;99.90;;;;;;4988424;28;20058;-87
2021/08/06 05:41:26;;;;;;;3.50;0.60;;;17.30;99.90;;;;;;4984811;28;20030;-85
2021/08/06 05:43:52;;;;;;;1.73;0.60;;;17.40;99.90;;;;;;4968665;28;20034;-87
2021/08/06 05:46:18;;;;;;;1.65;0.60;;;17.40;99.90;;;;;;4971189;28;20066;-87
2021/08/06 05:48:44;;;;;;;1.58;0.50;;;17.50;99.90;;;;;;4980326;28;20031;-86
2021/08/06 05:51:10;;;;;;;1.42;0.50;;;17.60;99.90;;;;;;4991897;28;20030;-88
2021/08/06 05:53:35;;;;;;;1.45;0.60;;;17.60;99.90;;;;;;4991299;28;20026;-86
2021/08/06 05:56:03;;;;;;;1.13;0.52;;;17.60;99.90;;;;;;4991566;28;20042;-86
2021/08/06 05:58:41;;;;;;;2.25;0.50;;;17.70;99.90;;;;;;4976981;28;20042;-86
2021/08/06 06:01:07;;;;;;;1.10;0.50;;;17.80;99.90;;;;;;4975376;28;20030;-86
2021/08/06 06:03:39;;;;;;;1.10;0.47;;;17.90;99.90;;;;;;4991446;28;20037;-84
2021/08/06 06:06:17;;;;;;;2.40;0.40;;;17.90;99.90;;;;;;4991529;28;20054;-83
2021/08/06 06:08:43;;;;;;;1.65;0.47;;;17.80;99.90;;;;;;4974964;28;20035;-83
2021/08/06 06:11:09;;;;;;;1.70;0.40;;;17.80;99.90;;;;;;4974895;28;20026;-84
2021/08/06 06:13:36;;;;;;;1.60;0.45;;;17.70;99.90;;;;;;4975065;28;20390;-83
2021/08/06 06:16:01;;;;;;;1.30;0.50;;;17.70;99.90;;;;;;4990764;28;20050;-84
2021/08/06 06:18:28;;;;;;;0.95;0.40;;;17.70;99.90;;;;;;4990821;28;20057;-83
2021/08/06 06:20:54;;;;;;;1.83;0.40;;;17.70;99.90;;;;;;4974981;28;20387;-83
2021/08/06 06:23:19;;;;;;;1.38;0.43;;;17.70;99.90;;;;;;4974379;28;20034;-84
2021/08/06 06:25:45;;;;;;;1.02;0.50;;;17.70;99.90;;;;;;5007102;28;20058;-84
2021/08/06 06:28:12;;;;;;;1.02;0.30;;;17.70;99.90;;;;;;4990977;28;20026;-85
2021/08/06 06:30:43;;;;;;;1.00;0.32;;;17.60;99.90;;;;;;4990749;28;20027;-84
2021/08/06 06:33:10;;;;;;;1.60;0.40;;;17.60;99.90;;;;;;4974735;28;20034;-84
2021/08/06 06:35:37;;;;;;;1.50;0.40;;;17.50;99.90;;;;;;4990736;28;20090;-84
2021/08/06 06:38:04;;;;;;;1.42;0.40;;;17.50;99.90;;;;;;4990322;28;20068;-84
2021/08/06 06:40:32;;;;;;;1.35;0.40;;;17.50;99.90;;;;;;4990837;28;20057;-85
2021/08/06 06:43:01;;;;;;;0.80;0.30;;;17.40;99.90;;;;;;4974918;28;20030;-84
2021/08/06 06:45:28;;;;;;;0.90;0.38;;;17.40;99.90;;;;;;4990472;28;20031;-83
2021/08/06 06:47:55;;;;;;;1.58;0.30;;;17.50;99.90;;;;;;4988347;28;20106;-83
2021/08/06 06:50:25;;;;;;;0.90;0.38;;;17.50;99.90;;;;;;4970978;28;20051;-84
2021/08/06 06:52:51;;;;;;;2.20;0.40;;;17.60;99.90;;;;;;4971184;28;20042;-83
2021/08/06 06:55:17;;;;;;;1.20;0.40;;;17.60;99.90;;;;;;4987084;28;20089;-84
2021/08/06 06:57:50;;;;;;;0.73;0.32;;;17.60;99.90;;;;;;4970064;28;20142;-83
2021/08/06 07:00:20;;;;;;;0.95;0.30;;;17.60;99.90;;;;;;4955020;28;20027;-84
2021/08/06 07:02:45;;;;;;;0.70;0.30;;;17.60;99.90;;;;;;4971060;28;20038;-84
2021/08/06 07:05:13;;;;;;;0.65;0.30;;;17.70;99.90;;;;;;4970759;28;20034;-84
2021/08/06 07:07:39;;;;;;;0.70;0.30;;;17.80;99.90;;;;;;4970665;28;20098;-83
2021/08/06 07:10:08;;;;;;;0.68;0.20;;;17.80;99.90;;;;;;4970470;28;20031;-83
2021/08/06 07:12:35;;;;;;;0.63;0.30;;;17.80;99.90;;;;;;4970753;28;20023;-83
2021/08/06 07:15:04;;;;;;;1.15;0.30;;;17.90;99.90;;;;;;4970478;28;20098;-83
2021/08/06 07:17:33;;;;;;;0.90;0.50;;;17.90;99.90;;;;;;4987105;28;20046;-83
2021/08/06 07:19:59;;;;;;;0.93;0.45;;;18.00;99.90;;;;;;4990215;28;20018;-83
2021/08/06 07:22:26;;;;;;;1.02;0.50;;;18.00;99.90;;;;;;4990085;28;20042;-83
2021/08/06 07:24:53;;;;;;;1.17;0.50;;;18.10;99.90;;;;;;4989189;28;20037;-84
2021/08/06 07:27:20;;;;;;;0.70;0.30;;;18.10;99.90;;;;;;4989894;28;20033;-83
2021/08/06 07:29:47;;;;;;;2.00;0.50;;;18.30;99.90;;;;;;4989482;28;20483;-83
2021/08/06 07:32:13;;;;;;;1.60;0.60;;;18.30;99.90;;;;;;4989899;28;20030;-85
2021/08/06 07:34:39;;;;;;;1.10;0.40;;;18.30;99.90;;;;;;4989893;28;20034;-84
2021/08/06 07:37:04;;;;;;;0.88;0.38;;;18.50;99.90;;;;;;4989824;28;20078;-84
2021/08/06 07:39:30;;;;;;;1.15;0.50;;;18.60;99.90;;;;;;4973662;28;20117;-85
2021/08/06 07:41:56;;;;;;;2.63;0.63;;;18.60;99.90;;;;;;4989969;28;20058;-84
2021/08/06 07:44:22;;;;;;;1.00;0.50;;;18.80;99.90;;;;;;4973515;28;20030;-84
2021/08/06 07:50:37;;;;;;;1.38;0.50;;;18.80;99.90;;;;;;4927131;29;20082;-83
2021/08/06 07:53:03;;;;;;;1.20;0.47;;;18.70;99.90;;;;;;4927594;29;20024;-84
2021/08/06 07:55:29;;;;;;;1.55;0.50;;;18.50;99.90;;;;;;4911700;29;20099;-85
2021/08/06 07:57:55;;;;;;;1.17;0.50;;;18.50;99.90;;;;;;4911536;29;20044;-85
2021/08/06 08:00:22;;;;;;;0.80;0.40;;;18.60;99.90;;;;;;4911933;29;20036;-85
2021/08/06 08:02:50;;;;;;;0.85;0.40;;;18.70;99.90;;;;;;4911418;29;20032;-84
2021/08/06 08:05:21;;;;;;;1.40;0.50;;;19.00;99.90;;;;;;4912100;29;20032;-82
2021/08/06 08:07:48;;;;;;;1.88;0.70;;;19.20;99.90;;;;;;4911373;29;20036;-83
2021/08/06 08:10:14;;;;;;;1.60;0.65;;;19.10;99.90;;;;;;4911408;29;20141;-83
2021/08/06 08:12:40;;;;;;;2.15;0.50;;;19.10;99.90;;;;;;4911239;29;20035;-82
2021/08/06 08:15:07;;;;;;;1.05;0.50;;;19.10;99.90;;;;;;4926814;29;20092;-84
2021/08/06 08:17:33;;;;;;;1.85;0.50;;;19.30;99.90;;;;;;4944739;29;20610;-82
2021/08/06 08:19:59;;;;;;;1.90;0.60;;;19.40;99.90;;;;;;4964839;29;20039;-82
2021/08/06 08:22:25;;;;;;;1.15;0.55;;;19.40;99.90;;;;;;4965130;29;20599;-83
2021/08/06 08:24:51;;;;;;;1.30;0.50;;;19.30;99.90;;;;;;4932788;29;20043;-83
2021/08/06 08:27:20;;;;;;;1.40;0.50;;;19.50;99.90;;;;;;4978931;28;20067;-82
2021/08/06 08:29:47;;;;;;;1.75;0.50;;;19.50;99.90;;;;;;4988752;28;20037;-82
2021/08/06 08:32:14;;;;;;;0.90;0.32;;;19.50;99.90;;;;;;4988448;28;20041;-81
2021/08/06 08:34:40;;;;;;;0.85;0.40;;;19.60;99.90;;;;;;4988537;28;20054;-83
2021/08/06 08:37:06;;;;;;;1.30;0.40;;;19.40;99.90;;;;;;4988318;28;20479;-82
2021/08/06 08:39:31;;;;;;;1.92;0.60;;;19.40;99.90;;;;;;4988381;28;20071;-82
2021/08/06 08:42:00;;;;;;;2.00;0.60;;;19.60;99.90;;;;;;4988308;28;20034;-83
2021/08/06 08:44:26;;;;;;;2.58;0.90;;;20.10;99.90;;;;;;4988146;28;20036;-81
2021/08/06 08:46:52;;;;;;;1.67;0.60;;;19.50;99.90;;;;;;4987848;28;20054;-81
2021/08/06 08:49:23;;;;;;;1.25;0.60;;;19.80;99.90;;;;;;5004287;28;20050;-83
2021/08/06 08:51:49;;;;;;;1.48;0.40;;;19.90;99.90;;;;;;4972188;28;20034;-81
2021/08/06 08:54:15;;;;;;;0.80;0.40;;;20.10;99.90;;;;;;4972220;28;20026;-82
2021/08/06 08:56:43;;;;;;;1.10;0.40;;;20.30;99.90;;;;;;4988176;28;20104;-83
2021/08/06 08:59:09;;;;;;;1.63;0.50;;;20.10;99.90;;;;;;4972225;28;20410;-83
2021/08/06 09:01:35;;;;;;;1.27;0.60;;;19.80;99.90;;;;;;4988127;28;20030;-82
2021/08/06 09:04:18;;;;;;;2.83;0.60;;;20.10;99.90;;;;;;4987873;28;20026;-82
2021/08/06 09:06:44;;;;;;;2.35;0.60;;;20.10;99.90;;;;;;4988277;28;20026;-82
2021/08/06 09:09:27;;;;;;;2.28;0.50;;;20.40;99.90;;;;;;4987993;28;20049;-81
2021/08/06 09:12:12;;;;;;;1.63;0.40;;;20.80;99.90;;;;;;4990237;28;20034;-81
2021/08/06 09:14:49;;;;;;;2.63;0.52;;;21.30;99.90;;;;;;5005715;28;20031;-82
2021/08/06 09:17:15;;;;;;;3.45;0.75;;;21.20;99.90;;;;;;4972906;28;20045;-82
2021/08/06 09:19:54;;;;;;;2.25;0.60;;;20.20;99.90;;;;;;4968146;28;20072;-82
2021/08/06 09:22:25;;;;;;;3.88;0.60;;;20.20;99.90;;;;;;4968675;28;20041;-85
2021/08/06 09:25:15;;;;;;;1.63;0.50;;;20.90;99.90;;;;;;4968832;28;20045;-85
2021/08/06 09:28:02;;;;;;;2.75;0.38;;;21.50;99.90;;;;;;4968764;28;20030;-84
2021/08/06 09:30:39;;;;;;;2.55;0.47;;;21.70;99.90;;;;;;4968644;28;20102;-84
2021/08/06 09:33:08;;;;;;;4.22;0.40;;;21.70;99.90;;;;;;4968475;28;20038;-84
2021/08/06 09:35:35;;;;;;;3.63;0.63;;;20.50;99.90;;;;;;4952523;28;20388;-83
2021/08/06 09:38:00;;;;;;;1.30;0.40;;;20.30;99.90;;;;;;4968630;28;20062;-84
2021/08/06 09:40:29;;;;;;;1.08;0.40;;;20.40;99.90;;;;;;4968563;28;20035;-83
2021/08/06 09:42:58;;;;;;;2.37;0.60;;;21.10;99.90;;;;;;4968377;28;20062;-82
2021/08/06 09:45:28;;;;;;;3.40;0.50;;;21.60;99.90;;;;;;4968470;28;20059;-81
2021/08/06 09:47:55;;;;;;;1.85;0.45;;;21.70;99.90;;;;;;4969050;28;20066;-82
2021/08/06 09:50:23;;;;;;;1.90;0.40;;;22.00;99.90;;;;;;5003756;28;20054;-84
2021/08/06 09:52:52;;;;;;;1.48;0.57;;;22.40;99.90;;;;;;4987421;28;20057;-83
2021/08/06 09:55:46;;;;;;;3.58;0.45;;;22.90;99.90;;;;;;5004048;28;20038;-83
2021/08/06 09:58:22;;;;;;;1.20;0.30;;;22.40;99.90;;;;;;4987748;28;20052;-82
2021/08/06 10:00:51;;;;;;;2.15;0.40;;;22.50;99.90;;;;;;4987731;28;20034;-83
2021/08/06 10:03:30;;;;;;;1.58;0.40;;;22.70;99.90;;;;;;4987412;28;20041;-84
2021/08/06 10:06:10;;;;;;;1.35;0.30;;;22.80;99.90;;;;;;4987451;28;20057;-84
2021/08/06 10:08:36;;;;;;;0.90;0.32;;;22.60;99.90;;;;;;5003731;28;20070;-85
2021/08/06 10:11:02;;;;;;;1.05;0.30;;;22.50;99.90;;;;;;4987583;28;20030;-85
2021/08/06 10:13:28;;;;;;;1.65;0.40;;;22.10;99.90;;;;;;4987521;28;20122;-83
2021/08/06 10:15:54;;;;;;;1.85;0.38;;;21.50;99.90;;;;;;5004999;28;20110;-83
2021/08/06 10:18:20;;;;;;;1.42;0.40;;;21.50;99.90;;;;;;4987389;28;20038;-84
2021/08/06 10:20:48;;;;;;;0.90;0.30;;;21.60;99.90;;;;;;4987508;28;20102;-84
2021/08/06 10:23:15;;;;;;;1.70;0.37;;;21.90;99.90;;;;;;4971356;28;20088;-84
2021/08/06 10:25:41;;;;;;;0.50;0.20;;;21.90;99.90;;;;;;4987549;28;20085;-84
2021/08/06 10:28:07;;;;;;;0.98;0.30;;;22.10;99.90;;;;;;4971174;28;20037;-84
2021/08/06 10:30:35;;;;;;;0.80;0.30;;;22.30;99.90;;;;;;4971410;28;20054;-84
2021/08/06 10:33:06;;;;;;;0.90;0.30;;;22.50;99.90;;;;;;4989711;28;20038;-84
2021/08/06 10:35:48;;;;;;;1.48;0.20;;;22.60;99.90;;;;;;4974858;28;20048;-83
2021/08/06 10:38:31;;;;;;;1.55;0.40;;;23.00;99.90;;;;;;4974646;28;20137;-83
2021/08/06 10:40:57;;;;;;;1.35;0.30;;;22.70;99.90;;;;;;4990880;28;20033;-84
2021/08/06 10:43:36;;;;;;;0.88;0.30;;;22.60;99.90;;;;;;4990481;28;20026;-84
2021/08/06 10:46:02;;;;;;;1.30;0.40;;;22.30;99.90;;;;;;4974539;28;20053;-84
2021/08/06 10:48:31;;;;;;;1.40;0.30;;;22.40;99.90;;;;;;4992700;28;20031;-85
2021/08/06 10:51:15;;;;;;;1.55;0.30;;;22.30;99.90;;;;;;4990962;28;20057;-84
2021/08/06 10:53:56;;;;;;;1.30;0.30;;;22.40;99.90;;;;;;4990426;28;20072;-85
2021/08/06 10:56:25;;;;;;;1.73;0.40;;;22.30;99.90;;;;;;4974436;28;20041;-85
2021/08/06 10:58:54;;;;;;;0.93;0.27;;;22.30;99.90;;;;;;5007892;28;20076;-84
2021/08/06 11:01:32;;;;;;;1.13;0.30;;;22.30;99.90;;;;;;4974321;28;20611;-84
2021/08/06 11:03:59;;;;;;;3.30;0.30;;;22.10;99.90;;;;;;4974054;28;20121;-84
2021/08/06 11:06:47;;;;;;;1.73;0.40;;;21.90;99.90;;;;;;5006366;28;20210;-83
2021/08/06 11:09:25;;;;;;;1.20;0.30;;;21.80;99.90;;;;;;5006338;28;20040;-84
2021/08/06 11:12:07;;;;;;;1.05;0.38;;;21.90;99.90;;;;;;5006482;28;20051;-84
2021/08/06 11:14:38;;;;;;;1.00;0.40;;;21.70;99.90;;;;;;5006369;28;20502;-83
2021/08/06 11:17:12;;;;;;;0.95;0.30;;;21.90;99.90;;;;;;4976941;28;20038;-84
2021/08/06 11:19:43;;;;;;;0.93;0.40;;;22.80;99.90;;;;;;5009676;28;20045;-83
2021/08/06 11:22:17;;;;;;;0.95;0.30;;;23.20;99.90;;;;;;5009784;28;20081;-84
2021/08/06 11:24:47;;;;;;;0.95;0.30;;;22.70;99.90;;;;;;5009295;28;20034;-84
2021/08/06 11:27:14;;;;;;;1.20;0.30;;;21.90;99.90;;;;;;5009491;28;20085;-84
2021/08/06 11:29:42;;;;;;;1.05;0.30;;;21.70;99.90;;;;;;5009449;28;20087;-86
2021/08/06 11:32:10;;;;;;;1.10;0.30;;;21.70;99.90;;;;;;5002535;28;20038;-85
2021/08/06 11:34:59;;;;;;;1.73;0.30;;;21.90;99.90;;;;;;4986328;28;20398;-82
2021/08/06 11:37:44;;;;;;;1.92;0.40;;;21.20;99.90;;;;;;4986072;28;20049;-82
2021/08/06 11:40:11;;;;;;;1.25;0.35;;;20.80;99.90;;;;;;5002332;28;20038;-82
2021/08/06 11:42:39;;;;;;;1.52;0.43;;;20.60;99.90;;;;;;4969495;28;20078;-84
2021/08/06 11:45:07;;;;;;;1.50;0.40;;;20.70;99.90;;;;;;4985812;28;20031;-84
2021/08/06 11:47:50;;;;;;;1.67;0.40;;;21.00;99.90;;;;;;5001795;28;20139;-82
2021/08/06 11:50:34;;;;;;;1.98;0.50;;;20.70;99.90;;;;;;4969017;28;20054;-82
2021/08/06 11:53:00;;;;;;;1.67;0.40;;;20.40;99.90;;;;;;4985562;28;20050;-84
2021/08/06 11:55:29;;;;;;;1.60;0.60;;;21.00;99.90;;;;;;4969783;28;20030;-83
2021/08/06 11:57:56;;;;;;;2.25;0.40;;;20.90;99.90;;;;;;4970006;28;20039;-83
2021/08/06 12:00:35;;;;;;;2.22;0.70;;;21.50;99.90;;;;;;4969975;28;20055;-83
2021/08/06 12:03:15;;;;;;;1.67;0.40;;;22.30;99.90;;;;;;4969729;28;20035;-82
2021/08/06 12:05:46;;;;;;;1.40;0.40;;;22.30;99.90;;;;;;4969770;28;20031;-82
2021/08/06 12:08:20;;;;;;;1.23;0.40;;;22.10;99.90;;;;;;4977794;28;20041;-82
2021/08/06 12:10:48;;;;;;;1.27;0.30;;;22.30;99.90;;;;;;4997247;28;20073;-82
2021/08/06 12:13:20;;;;;;;1.38;0.40;;;22.60;99.90;;;;;;4972698;28;20037;-82
2021/08/06 12:15:45;;;;;;;1.52;0.40;;;22.80;99.90;;;;;;4991473;28;20333;-82
2021/08/06 12:18:14;;;;;;;1.88;0.40;;;22.00;99.90;;;;;;5007983;28;20068;-82
2021/08/06 12:20:49;;;;;;;1.00;0.23;;;22.20;99.90;;;;;;4930195;28;20135;-78
2021/08/06 12:23:18;;;;;;;2.05;0.30;;;22.50;99.90;;;;;;4980614;28;20486;-79
2021/08/06 12:26:09;;;;;;;1.02;0.35;;;22.20;99.90;;;;;;4971345;28;20539;-79
2021/08/06 12:28:50;;;;;;;2.55;0.38;;;21.80;99.90;;;;;;5000989;28;20041;-80
2021/08/06 12:31:26;;;;;;;1.35;0.30;;;21.20;99.90;;;;;;4988548;28;20022;-80
2021/08/06 12:34:11;;;;;;;1.10;0.40;;;21.20;99.90;;;;;;5005823;28;20049;-79
2021/08/06 12:36:39;;;;;;;1.13;0.30;;;20.90;99.90;;;;;;4966698;28;20046;-79
2021/08/06 12:39:14;;;;;;;1.95;0.40;;;20.60;99.90;;;;;;4968949;28;20026;-79
2021/08/06 12:41:43;;;;;;;1.20;0.30;;;20.10;99.90;;;;;;4986896;28;20027;-80
2021/08/06 12:44:26;;;;;;;1.75;0.30;;;19.90;99.90;;;;;;4970127;28;20562;-81
2021/08/06 12:47:15;;;;;;;1.73;0.30;;;20.30;99.90;;;;;;4968773;28;20415;-80
2021/08/06 12:49:55;;;;;;;0.40;0.20;;;20.70;99.90;;;;;;4940939;29;20083;-80
2021/08/06 12:52:25;;;;;;;0.55;0.20;;;21.10;99.90;;;;;;4945182;29;20079;-80
2021/08/06 12:54:58;;;;;;;;;;;21.20;99.90;;;;;;4924913;29;20071;-81
2021/08/06 12:57:38;;;;;;;0.90;0.20;;;21.40;99.90;;;;;;4937327;29;19918;-80
2021/08/06 13:00:22;;;;;;;;;;;21.50;99.90;;;;;;4964702;29;20098;-80
2021/08/06 13:03:10;;;;;;;0.52;0.10;;;21.70;99.90;;;;;;4947414;29;20415;-80
2021/08/06 13:05:57;;;;;;;0.38;0.10;;;22.10;99.90;;;;;;4961646;29;20038;-80